createdAt,value
2018-05-10T00:01:56.254Z,86.10
2018-05-10T00:04:23.697Z,85.80
2018-05-10T00:06:52.004Z,84.90
2018-05-10T00:09:19.421Z,84.80
2018-05-10T00:11:47.633Z,83.90
2018-05-10T00:14:15.071Z,83.80
2018-05-10T00:16:42.512Z,84.10
2018-05-10T00:19:09.956Z,83.90
2018-05-10T00:21:38.160Z,85.10
2018-05-10T00:24:05.604Z,85.10
2018-05-10T00:26:33.032Z,85.00
2018-05-10T00:29:01.241Z,85.40
2018-05-10T00:31:28.681Z,85.30
2018-05-10T00:33:56.121Z,86.60
2018-05-10T00:36:24.328Z,87.20
2018-05-10T00:38:51.779Z,87.20
2018-05-10T00:41:19.219Z,86.20
2018-05-10T00:43:46.668Z,86.30
2018-05-10T00:46:14.114Z,86.30
2018-05-10T00:48:42.325Z,85.90
2018-05-10T00:51:10.008Z,85.80
2018-05-10T00:53:37.366Z,86.30
2018-05-10T00:56:04.803Z,85.90
2018-05-10T00:58:32.243Z,85.90
2018-05-10T01:00:59.687Z,85.40
2018-05-10T01:03:27.135Z,85.20
2018-05-10T01:05:54.572Z,84.70
2018-05-10T01:08:22.869Z,83.40
2018-05-10T01:10:50.212Z,83.40
2018-05-10T01:13:17.697Z,83.30
2018-05-10T01:15:45.131Z,82.90
2018-05-10T01:18:12.574Z,82.50
2018-05-10T01:20:40.787Z,80.40
2018-05-10T01:23:08.222Z,80.30
2018-05-10T01:25:35.674Z,77.40
2018-05-10T01:28:03.106Z,78.10
2018-05-10T01:30:30.559Z,80.50
2018-05-10T01:32:58.763Z,81.20
2018-05-10T01:35:38.157Z,81.20
2018-05-10T01:38:06.493Z,81.90
2018-05-10T01:40:33.920Z,81.90
2018-05-10T01:43:01.354Z,81.90
2018-05-10T01:45:28.937Z,82.10
2018-05-10T01:47:56.376Z,80.90
2018-05-10T01:50:23.815Z,79.80
2018-05-10T01:52:52.016Z,80.40
2018-05-10T01:55:19.517Z,80.40
2018-05-10T01:57:46.903Z,81.30
2018-05-10T02:00:14.338Z,81.40
2018-05-10T02:02:42.569Z,81.00
2018-05-10T02:05:10.004Z,80.90
2018-05-10T02:07:37.441Z,80.70
2018-05-10T02:10:04.891Z,80.30
2018-05-10T02:12:32.329Z,80.40
2018-05-10T02:14:59.763Z,80.00
2018-05-10T02:17:27.197Z,81.30
2018-05-10T02:19:55.409Z,82.30
2018-05-10T02:22:23.612Z,82.90
2018-05-10T02:24:51.076Z,82.90
2018-05-10T02:27:18.491Z,83.00
2018-05-10T02:29:47.070Z,83.00
2018-05-10T02:32:14.454Z,82.90
2018-05-10T02:34:41.889Z,83.10
2018-05-10T02:37:10.096Z,84.20
2018-05-10T02:39:37.538Z,84.20
2018-05-10T02:42:04.976Z,84.30
2018-05-10T02:44:33.180Z,85.00
2018-05-10T02:47:00.616Z,84.90
2018-05-10T02:49:28.065Z,85.60
2018-05-10T02:51:55.520Z,86.40
2018-05-10T02:54:23.812Z,87.40
2018-05-10T02:56:51.266Z,87.40
2018-05-10T02:59:18.706Z,88.20
2018-05-10T03:01:46.153Z,88.10
2018-05-10T03:04:13.633Z,87.80
2018-05-10T03:06:41.080Z,88.00
2018-05-10T03:09:08.516Z,88.40
2018-05-10T03:11:35.949Z,87.30
2018-05-10T03:14:04.164Z,84.40
2018-05-10T03:16:31.618Z,84.30
2018-05-10T03:18:59.079Z,83.00
2018-05-10T03:21:26.489Z,83.20
2018-05-10T03:23:54.700Z,85.70
2018-05-10T03:26:22.161Z,85.60
2018-05-10T03:28:49.597Z,86.30
2018-05-10T03:31:17.045Z,85.50
2018-05-10T03:33:44.492Z,85.40
2018-05-10T03:36:12.700Z,85.30
2018-05-10T03:38:40.260Z,85.30
2018-05-10T03:41:07.697Z,86.00
2018-05-10T03:43:35.132Z,86.70
2018-05-10T03:46:03.348Z,87.50
2018-05-10T03:48:30.786Z,87.40
2018-05-10T03:50:58.208Z,87.80
2018-05-10T03:53:26.434Z,87.90
2018-05-10T03:55:53.865Z,87.90
2018-05-10T03:58:21.649Z,87.90
2018-05-10T04:00:49.089Z,86.80
2018-05-10T04:03:51.020Z,85.80
2018-05-10T04:09:34.250Z,84.10
2018-05-10T04:12:01.697Z,84.10
2018-05-10T04:14:29.153Z,84.10
2018-05-10T04:16:56.599Z,84.10
2018-05-10T04:19:24.112Z,84.00
2018-05-10T04:21:51.786Z,84.20
2018-05-10T04:24:19.233Z,84.30
2018-05-10T04:26:46.676Z,83.60
2018-05-10T04:29:14.119Z,83.00
2018-05-10T04:31:41.558Z,82.90
2018-05-10T04:34:09.766Z,82.50
2018-05-10T04:36:37.203Z,82.40
2018-05-10T04:39:04.648Z,82.40
2018-05-10T04:41:32.086Z,82.40
2018-05-10T04:44:00.296Z,81.40
2018-05-10T04:46:27.743Z,81.40
2018-05-10T04:48:55.180Z,80.40
2018-05-10T04:51:22.646Z,80.20
2018-05-10T04:53:50.084Z,79.90
2018-05-10T04:56:18.287Z,78.30
2018-05-10T04:58:45.748Z,78.30
2018-05-10T05:01:13.528Z,77.40
2018-05-10T05:03:40.959Z,76.10
2018-05-10T05:06:08.395Z,75.90
2018-05-10T05:08:35.837Z,76.00
2018-05-10T05:11:04.045Z,73.40
2018-05-10T05:13:31.930Z,73.40
2018-05-10T05:15:59.364Z,73.70
2018-05-10T05:18:26.806Z,74.00
2018-05-10T05:20:54.257Z,74.10
2018-05-10T05:23:21.712Z,74.50
2018-05-10T05:25:49.148Z,74.70
2018-05-10T05:28:17.354Z,75.30
2018-05-10T05:30:44.805Z,75.20
2018-05-10T05:33:12.246Z,75.60
2018-05-10T05:35:39.760Z,76.40
2018-05-10T05:38:07.923Z,76.80
2018-05-10T05:40:35.358Z,76.80
2018-05-10T05:43:02.815Z,77.00
2018-05-10T05:45:30.284Z,77.20
2018-05-10T05:47:57.730Z,77.80
2018-05-10T05:50:25.180Z,77.90
2018-05-10T05:52:52.613Z,77.80
2018-05-10T05:55:20.069Z,77.70
2018-05-10T05:57:47.501Z,77.70
2018-05-10T06:00:14.954Z,78.10
2018-05-10T06:02:42.399Z,77.80
2018-05-10T06:05:10.613Z,77.20
2018-05-10T06:07:38.053Z,77.10
2018-05-10T06:10:09.567Z,76.60
2018-05-10T06:12:37.343Z,76.10
2018-05-10T06:15:05.538Z,74.70
2018-05-10T06:17:32.980Z,74.50
2018-05-10T06:20:00.416Z,73.30
2018-05-10T06:22:28.637Z,70.80
2018-05-10T06:24:56.188Z,70.80
2018-05-10T06:27:23.517Z,69.60
2018-05-10T06:29:51.322Z,67.90
2018-05-10T06:32:18.757Z,67.00
2018-05-10T06:34:46.196Z,63.60
2018-05-10T06:37:13.636Z,62.10
2018-05-10T06:39:42.422Z,60.10
2018-05-10T06:42:10.633Z,61.10
2018-05-10T06:44:38.060Z,61.10
2018-05-10T06:47:05.513Z,61.60
2018-05-10T06:49:32.948Z,62.20
2018-05-10T06:52:01.468Z,64.90
2018-05-10T06:54:28.902Z,64.80
2018-05-10T06:56:56.341Z,65.70
2018-05-10T06:59:24.549Z,66.40
2018-05-10T07:01:52.000Z,66.40
2018-05-10T07:04:19.443Z,66.20
2018-05-10T07:06:46.880Z,66.80
2018-05-10T07:09:15.192Z,67.60
2018-05-10T07:11:42.545Z,67.50
2018-05-10T07:14:09.981Z,67.80
2018-05-10T07:16:37.436Z,67.90
2018-05-10T07:19:04.879Z,68.00
2018-05-10T07:21:33.079Z,68.60
2018-05-10T07:24:00.548Z,68.60
2018-05-10T07:26:27.983Z,68.00
2018-05-10T07:28:55.416Z,67.30
2018-05-10T07:31:22.872Z,66.80
2018-05-10T07:33:50.312Z,67.20
2018-05-10T07:36:18.524Z,65.60
2018-05-10T07:38:45.962Z,65.60
2018-05-10T07:41:13.396Z,64.10
2018-05-10T07:43:41.611Z,63.90
2018-05-10T07:46:09.052Z,63.90
2018-05-10T07:48:36.496Z,65.20
2018-05-10T07:51:03.935Z,65.40
2018-05-10T07:53:32.141Z,67.40
2018-05-10T07:55:59.579Z,66.70
2018-05-10T07:58:27.036Z,67.50
2018-05-10T08:00:54.543Z,68.80
2018-05-10T08:03:22.681Z,71.20
2018-05-10T08:05:50.231Z,71.10
2018-05-10T08:10:51.680Z,72.80
2018-05-10T08:13:19.116Z,73.30
2018-05-10T08:15:47.331Z,76.10
2018-05-10T08:18:14.776Z,76.10
2018-05-10T08:20:42.273Z,76.40
2018-05-10T08:23:09.668Z,76.70
2018-05-10T08:25:37.116Z,77.00
2018-05-10T08:28:04.552Z,77.70
2018-05-10T08:30:32.767Z,80.90
2018-05-10T08:33:00.319Z,80.80
2018-05-10T08:35:27.753Z,82.80
2018-05-10T08:37:55.231Z,85.30
2018-05-10T08:40:22.661Z,87.90
2018-05-10T08:42:50.877Z,90.30
2018-05-10T08:45:18.310Z,90.30
2018-05-10T08:47:45.758Z,90.80
2018-05-10T08:50:13.194Z,91.30
2018-05-10T08:52:41.677Z,92.00
2018-05-10T08:55:09.878Z,92.60
2018-05-10T08:57:37.306Z,92.50
2018-05-10T09:00:04.804Z,92.50
2018-05-10T09:02:32.958Z,92.30
2018-05-10T09:05:00.414Z,92.20
2018-05-10T09:07:27.885Z,92.10
2018-05-10T09:09:55.285Z,92.00
2018-05-10T09:12:23.500Z,92.00
2018-05-10T09:14:50.934Z,92.10
2018-05-10T09:17:18.730Z,91.70
2018-05-10T09:19:46.161Z,91.30
2018-05-10T09:22:13.632Z,91.70
2018-05-10T09:24:41.408Z,91.30
2018-05-10T09:27:08.856Z,91.70
2018-05-10T09:29:36.286Z,91.70
2018-05-10T09:32:03.736Z,91.90
2018-05-10T09:34:31.185Z,91.80
2018-05-10T09:36:58.622Z,91.80
2018-05-10T09:39:26.867Z,92.00
2018-05-10T09:41:54.269Z,92.00
2018-05-10T09:44:21.720Z,91.80
2018-05-10T09:46:49.168Z,92.00
2018-05-10T09:49:16.608Z,92.20
2018-05-10T09:51:44.828Z,92.10
2018-05-10T09:54:12.275Z,92.10
2018-05-10T09:56:39.907Z,91.20
2018-05-10T09:59:07.356Z,91.50
2018-05-10T10:01:35.598Z,90.80
2018-05-10T10:04:03.221Z,90.80
2018-05-10T10:06:30.661Z,91.00
2018-05-10T10:08:58.100Z,91.10
2018-05-10T10:11:26.312Z,91.50
2018-05-10T10:13:53.748Z,91.40
2018-05-10T10:16:21.194Z,91.30
2018-05-10T10:18:48.645Z,90.80
2018-05-10T10:21:16.090Z,90.10
2018-05-10T10:23:44.291Z,88.50
2018-05-10T10:26:11.739Z,88.40
2018-05-10T10:28:39.185Z,89.10
2018-05-10T10:31:06.621Z,87.60
2018-05-10T10:33:34.823Z,86.70
2018-05-10T10:36:02.275Z,86.60
2018-05-10T10:38:29.721Z,85.40
2018-05-10T10:40:57.157Z,83.50
2018-05-10T10:43:25.388Z,81.20
2018-05-10T10:45:52.854Z,81.00
2018-05-10T10:48:20.299Z,78.80
2018-05-10T10:50:47.764Z,78.60
2018-05-10T10:53:15.285Z,79.00
2018-05-10T10:55:42.792Z,75.90
2018-05-10T10:58:10.263Z,76.90
2018-05-10T11:00:38.481Z,73.20
2018-05-10T11:03:05.917Z,73.20
2018-05-10T11:05:33.381Z,72.60
2018-05-10T11:08:00.907Z,74.00
2018-05-10T11:10:28.325Z,73.20
2018-05-10T11:12:55.777Z,69.90
2018-05-10T11:15:23.224Z,68.30
2018-05-10T11:17:50.656Z,67.50
2018-05-10T11:20:18.126Z,68.00
2018-05-10T11:22:45.566Z,69.20
2018-05-10T11:25:13.003Z,68.60
2018-05-10T11:27:40.448Z,67.80
2018-05-10T11:30:07.904Z,69.70
2018-05-10T11:32:36.121Z,64.30
2018-05-10T11:35:03.570Z,64.30
2018-05-10T11:37:31.016Z,63.20
2018-05-10T11:39:59.112Z,61.70
2018-05-10T11:42:26.575Z,60.40
2018-05-10T11:44:54.715Z,62.80
2018-05-10T11:47:22.183Z,62.10
2018-05-10T11:49:49.626Z,60.40
2018-05-10T11:52:17.063Z,59.50
2018-05-10T11:54:44.504Z,59.60
2018-05-10T11:57:12.014Z,58.50
2018-05-10T11:59:39.411Z,55.90
2018-05-10T12:02:06.858Z,56.30
2018-05-10T12:04:35.164Z,56.60
2018-05-10T12:07:02.580Z,56.60
2018-05-10T12:09:30.888Z,55.70
2018-05-10T12:11:58.321Z,55.70
2018-05-10T12:14:25.753Z,57.70
2018-05-10T12:16:53.973Z,58.90
2018-05-10T12:19:21.421Z,58.90
2018-05-10T12:21:48.878Z,60.10
2018-05-10T12:24:16.312Z,62.50
2018-05-10T12:26:43.750Z,65.10
2018-05-10T12:29:11.976Z,68.60
2018-05-10T12:31:39.412Z,68.40
2018-05-10T12:34:06.855Z,68.50
2018-05-10T12:36:34.323Z,67.60
2018-05-10T12:39:01.753Z,66.50
2018-05-10T12:41:29.261Z,64.30
2018-05-10T12:43:57.404Z,61.50
2018-05-10T12:46:24.851Z,61.50
2018-05-10T12:48:52.310Z,60.40
2018-05-10T12:51:19.756Z,58.80
2018-05-10T12:53:47.308Z,57.20
2018-05-10T12:56:15.619Z,55.70
2018-05-10T12:58:42.956Z,55.70
2018-05-10T13:01:10.408Z,55.50
2018-05-10T13:03:37.856Z,57.00
2018-05-10T13:06:05.293Z,55.40
2018-05-10T13:08:32.748Z,54.20
2018-05-10T13:11:00.183Z,54.30
2018-05-10T13:13:27.628Z,54.50
2018-05-10T13:15:55.069Z,55.20
2018-05-10T13:18:22.520Z,56.10
2018-05-10T13:20:49.951Z,56.60
2018-05-10T13:23:17.506Z,58.40
2018-05-10T13:25:44.926Z,59.80
2018-05-10T13:28:13.147Z,63.60
2018-05-10T13:30:40.606Z,63.70
2018-05-10T13:33:08.049Z,66.80
2018-05-10T13:35:35.506Z,67.30
2018-05-10T13:38:02.985Z,68.30
2018-05-10T13:40:30.425Z,70.00
2018-05-10T13:42:57.865Z,69.70
2018-05-10T13:45:25.350Z,69.20
2018-05-10T13:47:52.795Z,68.00
2018-05-10T13:50:20.231Z,67.90
2018-05-10T13:52:47.689Z,67.90
2018-05-10T13:55:15.141Z,68.00
2018-05-10T13:57:42.592Z,67.40
2018-05-10T14:00:10.056Z,67.90
2018-05-10T14:02:37.501Z,66.50
2018-05-10T14:05:04.936Z,66.40
2018-05-10T14:07:32.404Z,66.90
2018-05-10T14:09:59.836Z,66.30
2018-05-10T14:12:27.281Z,67.90
2018-05-10T14:14:55.488Z,68.10
2018-05-10T14:17:22.950Z,68.10
2018-05-10T14:19:50.376Z,68.80
2018-05-10T14:22:17.821Z,68.80
2018-05-10T14:24:46.090Z,68.30
2018-05-10T14:27:13.480Z,68.30
2018-05-10T14:29:40.973Z,68.80
2018-05-10T14:32:08.406Z,68.80
2018-05-10T14:34:35.856Z,68.70
2018-05-10T14:37:03.301Z,68.60
2018-05-10T14:39:30.785Z,68.50
2018-05-10T14:41:58.224Z,69.40
2018-05-10T14:44:25.679Z,70.00
2018-05-10T14:46:53.117Z,70.60
2018-05-10T14:49:20.569Z,71.90
2018-05-10T14:51:48.106Z,72.00
2018-05-10T14:54:16.293Z,71.80
2018-05-10T14:56:43.732Z,71.70
2018-05-10T14:59:11.190Z,72.10
2018-05-10T15:01:38.615Z,72.90
2018-05-10T15:04:06.053Z,73.10
2018-05-10T15:06:33.503Z,72.60
2018-05-10T15:09:01.011Z,72.90
2018-05-10T15:11:28.386Z,72.60
2018-05-10T15:13:55.841Z,72.20
2018-05-10T15:16:23.478Z,72.90
2018-05-10T15:18:50.916Z,73.50
2018-05-10T15:21:19.120Z,74.90
2018-05-10T15:23:46.625Z,74.70
2018-05-10T15:26:14.015Z,73.90
2018-05-10T15:28:41.444Z,74.70
2018-05-10T15:31:09.649Z,74.70
2018-05-10T15:33:37.113Z,74.70
2018-05-10T15:36:04.558Z,75.10
2018-05-10T15:38:32.346Z,75.70
2018-05-10T15:40:59.810Z,75.50
2018-05-10T15:43:27.247Z,75.30
2018-05-10T15:45:54.713Z,75.40
2018-05-10T15:48:22.260Z,76.20
2018-05-10T15:50:50.033Z,76.30
2018-05-10T15:53:17.478Z,76.70
2018-05-10T15:55:44.906Z,76.10
2018-05-10T15:58:12.348Z,76.20
2018-05-10T16:00:40.552Z,75.80
2018-05-10T16:03:08.077Z,75.80
2018-05-10T16:05:35.445Z,74.80
2018-05-10T16:08:03.243Z,74.80
2018-05-10T16:10:30.681Z,74.40
2018-05-10T16:12:58.139Z,75.00
2018-05-10T16:15:25.557Z,74.30
2018-05-10T16:17:53.759Z,73.10
2018-05-10T16:20:21.208Z,73.10
2018-05-10T16:22:48.657Z,73.30
2018-05-10T16:25:16.104Z,73.20
2018-05-10T16:27:43.543Z,73.30
2018-05-10T16:30:11.748Z,74.50
2018-05-10T16:32:39.199Z,74.40
2018-05-10T16:35:06.746Z,74.90
2018-05-10T16:37:34.175Z,75.00
2018-05-10T16:40:02.388Z,76.00
2018-05-10T16:42:29.842Z,75.90
2018-05-10T16:44:57.271Z,76.70
2018-05-10T16:47:24.753Z,77.40
2018-05-10T16:49:52.200Z,77.60
2018-05-10T16:52:19.648Z,78.10
2018-05-10T16:54:47.395Z,78.00
2018-05-10T16:57:14.829Z,78.90
2018-05-10T17:05:39.115Z,79.60
2018-05-10T17:08:06.576Z,79.60
2018-05-10T17:10:35.962Z,80.00
2018-05-10T17:13:03.412Z,80.70
2018-05-10T17:15:32.617Z,80.90
2018-05-10T17:18:00.039Z,80.90
2018-05-10T17:20:27.470Z,81.50
2018-05-10T17:22:57.137Z,82.30
2018-05-10T17:25:24.552Z,82.40
2018-05-10T17:27:51.992Z,81.90
2018-05-10T17:30:19.455Z,82.50
2018-05-10T17:32:46.956Z,81.90
2018-05-10T17:35:15.153Z,82.00
2018-05-10T17:37:44.653Z,82.00
2018-05-10T17:40:12.108Z,82.50
2018-05-10T17:42:39.567Z,82.90
2018-05-10T17:45:07.007Z,82.60
2018-05-10T17:47:34.459Z,81.50
2018-05-10T17:50:01.975Z,80.90
2018-05-10T17:52:29.439Z,81.20
2018-05-10T17:54:56.902Z,81.90
2018-05-10T17:57:25.336Z,82.60
2018-05-10T17:59:52.848Z,82.10
2018-05-10T18:02:23.484Z,82.20
2018-05-10T18:04:51.283Z,81.90
2018-05-10T18:07:18.793Z,82.10
2018-05-10T18:09:47.017Z,83.00
2018-05-10T18:12:14.490Z,82.90
2018-05-10T18:14:41.927Z,82.60
2018-05-10T18:17:09.419Z,83.10
2018-05-10T18:19:36.895Z,83.10
2018-05-10T18:22:04.343Z,83.80
2018-05-10T18:24:31.799Z,84.00
2018-05-10T18:27:00.003Z,84.00
2018-05-10T18:29:27.439Z,84.00
2018-05-10T18:31:54.954Z,84.30
2018-05-10T18:34:22.567Z,84.70
2018-05-10T18:36:50.036Z,84.70
2018-05-10T18:39:17.639Z,84.50
2018-05-10T18:41:45.851Z,84.90
2018-05-10T18:44:14.050Z,85.10
2018-05-10T18:46:41.491Z,85.00
2018-05-10T18:49:08.967Z,85.00
2018-05-10T18:51:36.402Z,85.30
2018-05-10T18:54:03.842Z,85.20
2018-05-10T18:56:31.292Z,85.40
2018-05-10T18:58:58.754Z,85.90
2018-05-10T19:01:26.182Z,85.60
2018-05-10T19:03:53.622Z,85.60
2018-05-10T19:06:21.084Z,85.40
2018-05-10T19:08:48.556Z,85.60
2018-05-10T19:11:16.007Z,85.60
2018-05-10T19:13:43.422Z,86.00
2018-05-10T19:16:10.932Z,86.20
2018-05-10T19:18:38.381Z,85.70
2018-05-10T19:21:05.842Z,85.20
2018-05-10T19:23:33.307Z,85.60
2018-05-10T19:26:01.511Z,85.70
2018-05-10T19:28:28.948Z,85.60
2018-05-10T19:30:56.408Z,85.60
2018-05-10T19:33:23.899Z,85.60
2018-05-10T19:35:51.355Z,86.30
2018-05-10T19:38:18.818Z,86.50
2018-05-10T19:40:46.258Z,86.70
2018-05-10T19:43:14.692Z,87.00
2018-05-10T19:45:42.293Z,87.50
2018-05-10T19:48:10.491Z,86.30
2018-05-10T19:50:37.943Z,86.30
2018-05-10T19:53:05.388Z,86.60
2018-05-10T19:55:32.835Z,86.60
2018-05-10T19:58:00.279Z,86.50
2018-05-10T20:00:27.714Z,87.00
2018-05-10T20:02:55.226Z,87.50
2018-05-10T20:05:22.636Z,87.80
2018-05-10T20:07:50.082Z,88.40
2018-05-10T20:10:17.607Z,88.60
2018-05-10T20:12:48.431Z,88.70
2018-05-10T20:15:15.871Z,88.80
2018-05-10T20:17:44.281Z,88.40
2018-05-10T20:20:11.731Z,88.20
2018-05-10T20:22:39.170Z,88.20
2018-05-10T20:25:06.615Z,88.40
2018-05-10T20:27:34.819Z,88.00
2018-05-10T20:30:02.259Z,87.90
2018-05-10T20:32:29.763Z,88.80
2018-05-10T20:34:57.163Z,88.80
2018-05-10T20:37:25.365Z,89.00
2018-05-10T20:39:52.995Z,88.90
2018-05-10T20:42:23.661Z,89.20
2018-05-10T20:44:52.051Z,89.50
2018-05-10T20:47:19.487Z,89.40
2018-05-10T20:49:47.203Z,88.50
2018-05-10T20:52:14.648Z,88.50
2018-05-10T20:54:42.087Z,88.70
2018-05-10T20:57:10.509Z,88.90
2018-05-10T20:59:37.959Z,89.30
2018-05-10T21:02:05.392Z,89.60
2018-05-10T21:04:32.831Z,89.70
2018-05-10T21:07:00.262Z,90.00
2018-05-10T21:09:27.729Z,90.10
2018-05-10T21:11:55.158Z,90.10
2018-05-10T21:14:22.591Z,90.20
2018-05-10T21:16:50.811Z,90.30
2018-05-10T21:19:18.243Z,90.30
2018-05-10T21:21:45.699Z,90.30
2018-05-10T21:24:13.130Z,90.30
2018-05-10T21:26:40.583Z,90.20
2018-05-10T21:29:08.024Z,90.40
2018-05-10T21:31:35.533Z,90.50
2018-05-10T21:34:03.027Z,90.60
2018-05-10T21:36:30.318Z,90.70
2018-05-10T21:38:57.754Z,90.70
2018-05-10T21:41:25.203Z,90.80
2018-05-10T21:43:52.639Z,91.00
2018-05-10T21:46:20.088Z,91.10
2018-05-10T21:48:47.519Z,91.20
2018-05-10T21:51:14.962Z,91.10
2018-05-10T21:53:42.391Z,91.20
2018-05-10T21:56:09.846Z,91.30
2018-05-10T21:58:37.256Z,91.40
2018-05-10T22:01:04.717Z,91.50
2018-05-10T22:03:32.160Z,91.60
2018-05-10T22:05:59.870Z,91.70
2018-05-10T22:08:27.309Z,91.70
2018-05-10T22:10:54.736Z,91.60
2018-05-10T22:13:22.219Z,91.60
2018-05-10T22:15:49.660Z,91.50
2018-05-10T22:18:17.103Z,91.50
2018-05-10T22:20:44.529Z,91.40
2018-05-10T22:23:12.217Z,91.10
2018-05-10T22:25:39.656Z,90.70
2018-05-10T22:28:07.109Z,90.40
2018-05-10T22:30:34.543Z,89.70
2018-05-10T22:33:01.969Z,89.20
2018-05-10T22:35:29.487Z,88.90
2018-05-10T22:37:56.863Z,89.10
2018-05-10T22:40:24.766Z,89.20
2018-05-10T22:42:52.199Z,89.30
2018-05-10T22:45:19.639Z,89.30
2018-05-10T22:47:47.075Z,89.40
2018-05-10T22:50:14.501Z,89.60
2018-05-10T22:52:41.933Z,89.90
2018-05-10T22:55:09.378Z,89.90
2018-05-10T22:57:36.814Z,90.10
2018-05-10T23:00:04.262Z,90.20
2018-05-10T23:02:31.699Z,90.30
2018-05-10T23:04:59.134Z,90.60
2018-05-10T23:07:27.350Z,91.10
2018-05-10T23:09:54.795Z,91.10
2018-05-10T23:12:22.239Z,91.20
2018-05-10T23:14:49.675Z,91.20
2018-05-10T23:17:17.114Z,91.20
2018-05-10T23:19:44.558Z,91.20
2018-05-10T23:22:11.995Z,91.20
2018-05-10T23:24:39.434Z,91.20
2018-05-10T23:27:06.891Z,91.20
2018-05-10T23:29:34.406Z,91.30
2018-05-10T23:32:01.806Z,91.20
2018-05-10T23:34:29.262Z,91.00
2018-05-10T23:36:56.687Z,90.80
2018-05-10T23:39:24.116Z,90.90
2018-05-10T23:41:51.552Z,91.20
2018-05-10T23:44:19.754Z,91.60
2018-05-10T23:46:47.180Z,91.60
2018-05-10T23:49:14.614Z,92.00
2018-05-10T23:51:42.047Z,92.10
2018-05-10T23:54:09.474Z,92.00
2018-05-10T23:56:36.924Z,92.00
2018-05-10T23:59:04.347Z,92.30
